createdAt,value
2023-01-20T00:00:35.922Z,47.66
2023-01-20T00:03:08.884Z,47.61
2023-01-20T00:05:41.860Z,47.62
2023-01-20T00:08:14.901Z,47.53
2023-01-20T00:10:48.019Z,47.60
2023-01-20T00:13:20.983Z,47.66
2023-01-20T00:15:53.952Z,47.65
2023-01-20T00:18:26.875Z,47.59
2023-01-20T00:20:59.950Z,47.67
2023-01-20T00:23:32.950Z,47.67
2023-01-20T00:26:05.944Z,47.68
2023-01-20T00:28:38.978Z,47.68
2023-01-20T00:31:12.158Z,47.69
2023-01-20T00:33:45.005Z,47.68
2023-01-20T00:36:17.922Z,47.70
2023-01-20T00:38:51.092Z,47.74
2023-01-20T00:41:24.063Z,47.60
2023-01-20T00:43:56.912Z,47.74
2023-01-20T00:46:30.099Z,47.72
2023-01-20T00:49:03.067Z,47.75
2023-01-20T00:51:35.692Z,47.73
2023-01-20T00:54:09.099Z,47.72
2023-01-20T00:56:41.985Z,47.71
2023-01-20T00:59:15.088Z,47.70
2023-01-20T01:01:48.295Z,47.70
2023-01-20T01:04:21.038Z,47.71
2023-01-20T01:06:53.979Z,47.75
2023-01-20T01:09:27.077Z,47.75
2023-01-20T01:12:00.053Z,47.73
2023-01-20T01:14:33.084Z,47.78
2023-01-20T01:17:06.025Z,47.78
2023-01-20T01:19:38.960Z,47.80
2023-01-20T01:22:11.921Z,47.86
2023-01-20T01:24:45.085Z,47.88
2023-01-20T01:27:32.054Z,47.88
2023-01-20T01:30:05.104Z,47.89
2023-01-20T01:32:38.013Z,47.78
2023-01-20T01:35:10.777Z,47.89
2023-01-20T01:37:43.960Z,47.88
2023-01-20T01:40:17.142Z,47.90
2023-01-20T01:42:50.153Z,47.89
2023-01-20T01:45:23.205Z,47.88
2023-01-20T01:47:56.142Z,47.89
2023-01-20T01:50:29.042Z,47.90
2023-01-20T01:53:01.897Z,47.85
2023-01-20T01:55:35.065Z,47.88
2023-01-20T01:58:07.937Z,47.88
2023-01-20T02:00:40.991Z,47.90
2023-01-20T02:03:14.047Z,47.90
2023-01-20T02:05:47.197Z,47.90
2023-01-20T02:08:20.140Z,47.91
2023-01-20T02:10:53.064Z,47.89
2023-01-20T02:13:26.059Z,47.91
2023-01-20T02:15:59.157Z,47.94
2023-01-20T02:18:32.179Z,47.91
2023-01-20T02:21:05.168Z,47.91
2023-01-20T02:23:38.111Z,47.95
2023-01-20T02:26:11.072Z,47.95
2023-01-20T02:28:44.102Z,47.90
2023-01-20T02:31:17.147Z,47.95
2023-01-20T02:33:50.052Z,47.95
2023-01-20T02:36:23.207Z,47.96
2023-01-20T02:38:56.119Z,47.92
2023-01-20T02:41:29.132Z,47.92
2023-01-20T02:44:02.261Z,47.94
2023-01-20T02:46:35.141Z,47.90
2023-01-20T02:49:08.305Z,47.95
2023-01-20T02:51:42.042Z,47.93
2023-01-20T02:54:15.121Z,47.92
2023-01-20T02:56:48.139Z,47.96
2023-01-20T02:59:21.264Z,47.94
2023-01-20T03:01:54.228Z,47.95
2023-01-20T03:04:27.249Z,47.96
2023-01-20T03:07:00.220Z,47.93
2023-01-20T03:09:33.165Z,47.96
2023-01-20T03:12:06.306Z,47.94
2023-01-20T03:14:39.301Z,47.93
2023-01-20T03:17:12.183Z,47.93
2023-01-20T03:19:45.114Z,47.90
2023-01-20T03:22:18.163Z,47.92
2023-01-20T03:24:51.200Z,47.95
2023-01-20T03:27:24.116Z,47.95
2023-01-20T03:29:57.239Z,47.95
2023-01-20T03:32:30.295Z,47.92
2023-01-20T03:35:03.095Z,47.95
2023-01-20T03:37:36.267Z,47.96
2023-01-20T03:40:09.218Z,47.95
2023-01-20T03:42:56.194Z,47.95
2023-01-20T03:45:29.245Z,47.95
2023-01-20T03:48:02.342Z,47.92
2023-01-20T03:50:35.080Z,47.88
2023-01-20T03:53:08.208Z,47.87
2023-01-20T03:55:41.325Z,47.89
2023-01-20T03:58:14.238Z,47.88
2023-01-20T04:00:47.340Z,47.89
2023-01-20T04:03:20.327Z,47.91
2023-01-20T04:05:53.281Z,48.01
2023-01-20T04:08:26.353Z,47.89
2023-01-20T04:10:59.256Z,47.94
2023-01-20T04:13:32.204Z,47.91
2023-01-20T04:16:05.343Z,47.95
2023-01-20T04:18:38.372Z,47.94
2023-01-20T04:21:11.247Z,47.93
2023-01-20T04:23:44.272Z,47.93
2023-01-20T04:26:17.256Z,47.93
2023-01-20T04:28:50.352Z,47.93
2023-01-20T04:31:30.569Z,47.92
2023-01-20T04:33:56.339Z,47.92
2023-01-20T04:36:29.297Z,47.93
2023-01-20T04:39:02.400Z,47.91
2023-01-20T04:41:35.359Z,47.88
2023-01-20T04:44:08.325Z,47.90
2023-01-20T04:46:47.393Z,47.88
2023-01-20T04:49:20.299Z,47.78
2023-01-20T04:51:53.395Z,47.87
2023-01-20T04:54:26.346Z,47.87
2023-01-20T04:56:59.338Z,47.86
2023-01-20T04:59:32.310Z,47.84
2023-01-20T05:02:05.397Z,47.87
2023-01-20T05:04:38.383Z,47.84
2023-01-20T05:07:11.383Z,47.87
2023-01-20T05:09:44.484Z,47.88
2023-01-20T05:12:17.311Z,47.85
2023-01-20T05:14:50.423Z,47.84
2023-01-20T05:17:23.398Z,47.85
2023-01-20T05:19:56.452Z,47.84
2023-01-20T05:22:29.460Z,47.84
2023-01-20T05:25:02.149Z,47.86
2023-01-20T05:27:35.350Z,47.84
2023-01-20T05:30:08.362Z,47.86
2023-01-20T05:32:41.588Z,47.81
2023-01-20T05:35:14.654Z,47.85
2023-01-20T05:37:47.450Z,47.86
2023-01-20T05:40:20.499Z,47.86
2023-01-20T05:42:53.329Z,47.85
2023-01-20T05:45:26.191Z,47.87
2023-01-20T05:47:59.313Z,47.89
2023-01-20T05:50:32.240Z,48.07
2023-01-20T05:53:05.493Z,47.05
2023-01-20T05:55:38.389Z,46.86
2023-01-20T05:58:11.279Z,46.71
2023-01-20T06:00:44.195Z,46.29
2023-01-20T06:03:31.063Z,46.58
2023-01-20T06:06:04.415Z,46.61
2023-01-20T06:08:37.539Z,46.86
2023-01-20T06:11:10.552Z,46.87
2023-01-20T06:13:43.260Z,46.91
2023-01-20T06:19:06.383Z,46.96
2023-01-20T06:21:39.443Z,47.09
2023-01-20T06:24:12.323Z,47.02
2023-01-20T06:26:45.225Z,47.04
2023-01-20T06:29:18.387Z,47.11
2023-01-20T06:31:51.612Z,47.06
2023-01-20T06:34:38.443Z,47.08
2023-01-20T06:37:11.491Z,46.99
2023-01-20T06:39:44.631Z,46.90
2023-01-20T06:42:18.632Z,46.78
2023-01-20T06:44:51.216Z,46.73
2023-01-20T06:47:24.467Z,46.74
2023-01-20T06:49:57.653Z,46.42
2023-01-20T06:52:30.212Z,46.66
2023-01-20T06:55:03.627Z,46.76
2023-01-20T06:57:36.221Z,46.71
2023-01-20T07:00:09.564Z,46.82
2023-01-20T07:02:42.612Z,46.62
2023-01-20T07:05:15.958Z,46.66
2023-01-20T07:07:48.511Z,46.79
2023-01-20T07:10:21.439Z,46.85
2023-01-20T07:12:54.309Z,46.87
2023-01-20T07:15:41.184Z,46.82
2023-01-20T07:18:14.566Z,46.78
2023-01-20T07:20:47.661Z,46.80
2023-01-20T07:23:20.602Z,46.81
2023-01-20T07:25:53.585Z,46.80
2023-01-20T07:28:26.747Z,46.80
2023-01-20T07:31:00.663Z,46.71
2023-01-20T07:33:33.641Z,46.72
2023-01-20T07:36:06.668Z,46.72
2023-01-20T07:38:39.850Z,46.84
2023-01-20T07:41:13.729Z,46.79
2023-01-20T07:43:46.607Z,46.79
2023-01-20T07:46:19.607Z,46.83
2023-01-20T07:48:52.468Z,46.81
2023-01-20T07:51:25.629Z,46.87
2023-01-20T07:53:58.581Z,46.86
2023-01-20T07:56:31.699Z,46.84
2023-01-20T07:59:04.633Z,46.88
2023-01-20T08:01:37.863Z,46.26
2023-01-20T08:04:10.617Z,46.48
2023-01-20T08:06:43.635Z,46.63
2023-01-20T08:09:16.635Z,46.72
2023-01-20T08:11:49.659Z,46.77
2023-01-20T08:14:22.717Z,46.70
2023-01-20T08:16:55.810Z,46.75
2023-01-20T08:19:28.475Z,46.71
2023-01-20T08:22:07.594Z,46.76
2023-01-20T08:24:40.379Z,46.78
2023-01-20T08:27:13.625Z,46.69
2023-01-20T08:29:46.605Z,46.74
2023-01-20T08:32:25.658Z,46.80
2023-01-20T08:34:58.589Z,46.78
2023-01-20T08:37:31.685Z,46.81
2023-01-20T08:40:04.656Z,46.85
2023-01-20T08:42:37.785Z,46.82
2023-01-20T08:45:10.700Z,46.81
2023-01-20T08:47:43.683Z,46.86
2023-01-20T08:50:16.630Z,46.80
2023-01-20T08:52:49.840Z,46.82
2023-01-20T08:55:22.804Z,46.80
2023-01-20T08:57:55.775Z,46.79
2023-01-20T09:00:28.721Z,46.77
2023-01-20T09:03:01.679Z,46.77
2023-01-20T09:05:34.707Z,46.81
2023-01-20T09:08:07.901Z,46.74
2023-01-20T09:10:40.511Z,46.78
2023-01-20T09:13:13.722Z,46.78
2023-01-20T09:15:46.790Z,46.78
2023-01-20T09:18:19.836Z,46.76
2023-01-20T09:20:52.749Z,46.83
2023-01-20T09:23:25.736Z,46.76
2023-01-20T09:25:58.761Z,46.81
2023-01-20T09:28:31.800Z,46.77
2023-01-20T09:31:04.958Z,46.81
2023-01-20T09:33:37.706Z,46.77
2023-01-20T09:36:10.850Z,46.83
2023-01-20T09:38:43.898Z,46.74
2023-01-20T09:41:16.791Z,46.77
2023-01-20T09:43:49.784Z,46.78
2023-01-20T09:46:23.082Z,46.78
2023-01-20T09:48:55.905Z,46.75
2023-01-20T09:51:28.836Z,46.71
2023-01-20T09:54:01.798Z,46.80
2023-01-20T09:56:34.776Z,46.76
2023-01-20T09:59:07.905Z,46.85
2023-01-20T10:01:40.971Z,46.82
2023-01-20T10:04:13.812Z,46.77
2023-01-20T10:06:46.889Z,46.82
2023-01-20T10:09:19.833Z,46.76
2023-01-20T10:11:52.812Z,46.83
2023-01-20T10:14:25.788Z,46.77
2023-01-20T10:16:58.865Z,46.85
2023-01-20T10:19:31.877Z,46.78
2023-01-20T10:22:04.798Z,46.85
2023-01-20T10:24:37.823Z,46.86
2023-01-20T10:27:10.819Z,46.83
2023-01-20T10:29:43.803Z,46.87
2023-01-20T10:32:16.832Z,46.86
2023-01-20T10:34:49.938Z,46.83
2023-01-20T10:37:22.963Z,46.82
2023-01-20T10:39:55.980Z,46.65
2023-01-20T10:42:28.974Z,46.64
2023-01-20T10:45:01.849Z,46.51
2023-01-20T10:47:34.751Z,46.49
2023-01-20T10:50:07.840Z,46.50
2023-01-20T10:52:40.875Z,46.52
2023-01-20T10:55:14.376Z,46.36
2023-01-20T10:57:47.007Z,46.39
2023-01-20T11:00:19.863Z,46.33
2023-01-20T11:02:52.986Z,46.40
2023-01-20T11:05:25.984Z,46.31
2023-01-20T11:07:58.689Z,46.30
2023-01-20T11:10:32.039Z,46.33
2023-01-20T11:13:04.925Z,46.31
2023-01-20T11:15:37.918Z,46.33
2023-01-20T11:18:10.921Z,46.40
2023-01-20T11:20:43.628Z,46.38
2023-01-20T11:23:17.030Z,46.32
2023-01-20T11:25:49.945Z,46.41
2023-01-20T11:28:22.922Z,46.27
2023-01-20T11:30:55.919Z,46.31
2023-01-20T11:33:29.129Z,46.33
2023-01-20T11:36:01.900Z,46.32
2023-01-20T11:38:34.821Z,46.23
2023-01-20T11:41:07.932Z,46.36
2023-01-20T11:43:41.057Z,46.28
2023-01-20T11:46:13.994Z,46.29
2023-01-20T11:48:46.861Z,46.30
2023-01-20T11:51:19.685Z,46.20
2023-01-20T11:53:52.843Z,46.27
2023-01-20T11:56:26.088Z,46.20
2023-01-20T11:58:58.967Z,46.33
2023-01-20T12:01:31.975Z,46.23
2023-01-20T12:04:05.127Z,46.24
2023-01-20T12:06:37.956Z,46.26
2023-01-20T12:09:13.825Z,46.11
2023-01-20T12:11:47.014Z,46.13
2023-01-20T12:14:19.736Z,46.19
2023-01-20T12:16:53.031Z,46.33
2023-01-20T12:19:26.029Z,46.59
2023-01-20T12:21:59.012Z,46.68
2023-01-20T12:24:42.590Z,46.75
2023-01-20T12:27:05.135Z,46.89
2023-01-20T12:29:38.106Z,46.93
2023-01-20T12:32:11.018Z,46.96
2023-01-20T12:34:44.118Z,47.00
2023-01-20T12:37:17.087Z,47.01
2023-01-20T12:39:50.145Z,47.07
2023-01-20T12:42:23.152Z,47.12
2023-01-20T12:44:56.157Z,47.14
2023-01-20T12:47:29.098Z,47.11
2023-01-20T12:50:02.184Z,47.06
2023-01-20T12:52:34.977Z,47.11
2023-01-20T12:55:07.898Z,47.11
2023-01-20T12:57:40.845Z,47.07
2023-01-20T13:00:14.139Z,47.08
2023-01-20T13:02:47.020Z,47.08
2023-01-20T13:05:19.931Z,47.10
2023-01-20T13:08:06.840Z,47.06
2023-01-20T13:10:39.809Z,47.05
2023-01-20T13:13:12.929Z,46.97
2023-01-20T13:15:45.842Z,46.93
2023-01-20T13:18:18.936Z,46.91
2023-01-20T13:20:52.099Z,46.94
2023-01-20T13:23:25.139Z,46.93
2023-01-20T13:25:58.237Z,46.92
2023-01-20T13:28:32.265Z,46.90
2023-01-20T13:31:05.380Z,46.95
2023-01-20T13:33:38.125Z,46.90
2023-01-20T13:36:10.875Z,46.87
2023-01-20T13:38:43.942Z,46.92
2023-01-20T13:41:16.846Z,46.95
2023-01-20T13:43:50.079Z,47.01
2023-01-20T13:46:23.230Z,46.92
2023-01-20T13:48:56.272Z,46.95
2023-01-20T13:51:28.840Z,46.89
2023-01-20T13:54:01.957Z,46.90
2023-01-20T13:56:35.130Z,46.87
2023-01-20T13:59:08.081Z,38.66
2023-01-20T14:01:41.277Z,35.98
2023-01-20T14:04:14.238Z,42.49
2023-01-20T14:06:47.241Z,43.20
2023-01-20T14:09:20.284Z,43.92
2023-01-20T14:11:53.214Z,43.98
2023-01-20T14:14:26.248Z,44.25
2023-01-20T14:16:59.109Z,44.46
2023-01-20T14:19:32.224Z,44.59
2023-01-20T14:22:05.171Z,44.63
2023-01-20T14:24:38.290Z,44.72
2023-01-20T14:27:12.811Z,44.76
2023-01-20T14:29:44.138Z,44.95
2023-01-20T14:32:17.200Z,45.05
2023-01-20T14:34:50.304Z,45.14
2023-01-20T14:37:23.180Z,45.24
2023-01-20T14:39:56.230Z,45.26
2023-01-20T14:42:29.002Z,45.30
2023-01-20T14:45:02.256Z,45.34
2023-01-20T14:47:35.011Z,45.34
2023-01-20T14:50:09.969Z,45.36
2023-01-20T14:52:43.057Z,45.44
2023-01-20T14:55:15.962Z,45.42
2023-01-20T14:57:48.995Z,45.50
2023-01-20T15:00:22.023Z,45.58
2023-01-20T15:03:09.579Z,45.53
2023-01-20T15:05:28.052Z,45.68
2023-01-20T15:08:01.169Z,45.67
2023-01-20T15:10:33.995Z,45.76
2023-01-20T15:13:06.965Z,45.71
2023-01-20T15:15:40.106Z,45.76
2023-01-20T15:18:12.993Z,45.75
2023-01-20T15:20:46.139Z,45.74
2023-01-20T15:23:19.132Z,45.76
2023-01-20T15:25:52.020Z,45.77
2023-01-20T15:28:25.119Z,45.74
2023-01-20T15:30:58.188Z,45.75
2023-01-20T15:33:31.052Z,45.80
2023-01-20T15:36:04.221Z,45.83
2023-01-20T15:38:37.076Z,45.80
2023-01-20T15:41:12.544Z,45.79
2023-01-20T15:43:43.243Z,45.87
2023-01-20T15:46:16.098Z,45.87
2023-01-20T15:48:49.195Z,45.88
2023-01-20T15:51:22.197Z,45.91
2023-01-20T15:53:56.148Z,45.90
2023-01-20T15:56:29.148Z,45.98
2023-01-20T15:59:02.166Z,45.99
2023-01-20T16:01:35.164Z,46.06
2023-01-20T16:04:08.115Z,46.02
2023-01-20T16:06:41.061Z,46.07
2023-01-20T16:09:14.070Z,46.08
2023-01-20T16:11:47.249Z,46.12
2023-01-20T16:14:20.224Z,46.11
2023-01-20T16:16:53.180Z,46.13
2023-01-20T16:19:26.181Z,46.19
2023-01-20T16:21:59.171Z,46.17
2023-01-20T16:24:32.097Z,46.22
2023-01-20T16:27:05.238Z,46.23
2023-01-20T16:29:38.181Z,46.25
2023-01-20T16:32:11.131Z,46.27
2023-01-20T16:34:44.280Z,46.29
2023-01-20T16:37:17.107Z,46.29
2023-01-20T16:39:50.161Z,46.30
2023-01-20T16:42:23.470Z,46.32
2023-01-20T16:44:56.399Z,46.38
2023-01-20T16:47:29.459Z,46.39
2023-01-20T16:50:02.395Z,46.40
2023-01-20T16:52:35.464Z,46.40
2023-01-20T16:55:08.430Z,46.41
2023-01-20T16:57:41.497Z,46.48
2023-01-20T17:00:17.452Z,46.55
2023-01-20T17:02:47.169Z,46.53
2023-01-20T17:05:20.318Z,46.56
2023-01-20T17:07:53.162Z,46.51
2023-01-20T17:10:26.308Z,46.55
2023-01-20T17:12:59.387Z,46.63
2023-01-20T17:15:32.170Z,46.64
2023-01-20T17:18:05.333Z,46.66
2023-01-20T17:20:38.378Z,46.66
2023-01-20T17:23:11.190Z,46.58
2023-01-20T17:25:44.301Z,46.67
2023-01-20T17:28:17.216Z,46.67
2023-01-20T17:30:50.386Z,46.67
2023-01-20T17:33:23.227Z,46.62
2023-01-20T17:35:56.520Z,46.62
2023-01-20T17:38:35.415Z,46.62
2023-01-20T17:41:08.517Z,46.67
2023-01-20T17:43:41.495Z,46.63
2023-01-20T17:46:14.619Z,46.64
2023-01-20T17:48:47.567Z,46.52
2023-01-20T17:51:20.625Z,46.64
2023-01-20T17:53:53.293Z,46.57
2023-01-20T17:56:26.631Z,46.51
2023-01-20T17:58:59.242Z,46.43
2023-01-20T18:01:32.637Z,46.51
2023-01-20T18:04:05.526Z,46.47
2023-01-20T18:06:38.606Z,46.52
2023-01-20T18:09:11.539Z,46.41
2023-01-20T18:11:44.642Z,46.32
2023-01-20T18:14:17.243Z,46.27
2023-01-20T18:16:50.705Z,46.27
2023-01-20T18:19:23.655Z,46.24
2023-01-20T18:21:56.568Z,46.28
2023-01-20T18:24:29.572Z,46.17
2023-01-20T18:27:02.672Z,46.18
2023-01-20T18:29:35.533Z,46.13
2023-01-20T18:32:08.460Z,45.97
2023-01-20T18:34:41.503Z,45.49
2023-01-20T18:37:15.340Z,45.42
2023-01-20T18:39:48.322Z,45.05
2023-01-20T18:42:35.344Z,44.93
2023-01-20T18:45:08.359Z,44.84
2023-01-20T18:47:41.374Z,44.94
2023-01-20T18:50:14.674Z,45.32
2023-01-20T18:52:47.410Z,45.60
2023-01-20T18:55:20.713Z,45.69
2023-01-20T18:57:53.329Z,45.82
2023-01-20T19:00:26.327Z,45.82
2023-01-20T19:02:59.502Z,45.93
2023-01-20T19:05:32.476Z,46.05
2023-01-20T19:08:05.385Z,46.07
2023-01-20T19:10:38.526Z,46.11
2023-01-20T19:13:11.355Z,46.16
2023-01-20T19:15:44.393Z,46.17
2023-01-20T19:18:17.370Z,46.21
2023-01-20T19:20:50.421Z,46.22
2023-01-20T19:23:23.356Z,46.28
2023-01-20T19:25:56.604Z,46.24
2023-01-20T19:28:29.661Z,46.30
2023-01-20T19:31:02.392Z,46.32
2023-01-20T19:33:35.492Z,46.31
2023-01-20T19:36:08.406Z,46.31
2023-01-20T19:38:55.725Z,46.28
2023-01-20T19:41:28.774Z,46.35
2023-01-20T19:44:01.545Z,46.35
2023-01-20T19:46:34.591Z,46.39
2023-01-20T19:49:07.449Z,46.43
2023-01-20T19:51:40.435Z,46.39
2023-01-20T19:54:13.711Z,46.35
2023-01-20T19:56:46.714Z,46.23
2023-01-20T19:59:19.492Z,46.01
2023-01-20T20:01:52.687Z,46.10
2023-01-20T20:04:25.585Z,46.10
2023-01-20T20:06:58.592Z,46.14
2023-01-20T20:09:31.511Z,46.12
2023-01-20T20:12:04.635Z,46.22
2023-01-20T20:14:51.614Z,46.18
2023-01-20T20:17:24.510Z,46.18
2023-01-20T20:19:57.540Z,46.18
2023-01-20T20:22:30.868Z,46.14
2023-01-20T20:25:03.615Z,46.15
2023-01-20T20:27:36.546Z,46.13
2023-01-20T20:30:09.467Z,46.11
2023-01-20T20:32:42.644Z,46.16
2023-01-20T20:35:15.481Z,46.17
2023-01-20T20:37:48.869Z,46.21
2023-01-20T20:40:21.653Z,46.12
2023-01-20T20:42:54.544Z,46.19
2023-01-20T20:45:41.402Z,46.27
2023-01-20T20:48:14.492Z,46.23
2023-01-20T20:50:47.556Z,46.29
2023-01-20T20:53:20.693Z,46.29
2023-01-20T20:55:53.760Z,46.33
2023-01-20T20:58:26.765Z,46.17
2023-01-20T21:00:59.869Z,46.15
2023-01-20T21:03:32.609Z,46.11
2023-01-20T21:06:05.794Z,46.16
2023-01-20T21:08:38.713Z,46.04
2023-01-20T21:11:11.581Z,46.12
2023-01-20T21:13:44.678Z,46.07
2023-01-20T21:16:17.897Z,46.05
2023-01-20T21:18:50.895Z,45.54
2023-01-20T21:21:23.553Z,45.16
2023-01-20T21:23:56.716Z,44.90
2023-01-20T21:26:30.655Z,44.79
2023-01-20T21:29:02.545Z,45.23
2023-01-20T21:31:35.774Z,45.26
2023-01-20T21:34:08.624Z,45.44
2023-01-20T21:36:41.596Z,45.53
2023-01-20T21:39:14.805Z,45.59
2023-01-20T21:41:47.687Z,45.58
2023-01-20T21:44:20.757Z,45.63
2023-01-20T21:47:07.711Z,45.68
2023-01-20T21:49:40.668Z,45.69
2023-01-20T21:52:13.688Z,45.71
2023-01-20T21:54:46.734Z,45.79
2023-01-20T21:57:19.619Z,45.87
2023-01-20T21:59:52.643Z,45.87
2023-01-20T22:02:25.668Z,45.93
2023-01-20T22:04:58.704Z,45.93
2023-01-20T22:07:31.920Z,46.00
2023-01-20T22:10:04.818Z,45.99
2023-01-20T22:12:37.956Z,46.06
2023-01-20T22:15:10.921Z,45.96
2023-01-20T22:17:44.018Z,46.04
2023-01-20T22:20:17.147Z,46.07
2023-01-20T22:22:49.893Z,46.05
2023-01-20T22:25:22.949Z,46.10
2023-01-20T22:27:55.772Z,46.07
2023-01-20T22:30:28.811Z,46.12
2023-01-20T22:33:02.052Z,46.13
2023-01-20T22:35:34.831Z,46.18
2023-01-20T22:38:07.923Z,46.14
2023-01-20T22:40:40.921Z,46.15
2023-01-20T22:43:13.932Z,46.17
2023-01-20T22:45:48.321Z,46.18
2023-01-20T22:48:19.950Z,46.29
2023-01-20T22:50:54.561Z,46.25
2023-01-20T22:53:25.867Z,46.30
2023-01-20T22:56:01.118Z,46.35
2023-01-20T22:58:31.976Z,46.33
2023-01-20T23:01:08.044Z,46.33
2023-01-20T23:03:40.943Z,46.38
2023-01-20T23:06:13.973Z,46.62
2023-01-20T23:08:47.007Z,46.65
2023-01-20T23:11:19.984Z,46.69
2023-01-20T23:13:53.064Z,46.67
2023-01-20T23:16:26.005Z,46.69
2023-01-20T23:18:58.993Z,46.72
2023-01-20T23:21:31.768Z,46.74
2023-01-20T23:24:04.849Z,46.71
2023-01-20T23:26:38.131Z,46.80
2023-01-20T23:29:11.110Z,46.79
2023-01-20T23:31:43.950Z,46.81
2023-01-20T23:34:17.020Z,46.85
2023-01-20T23:36:49.943Z,46.80
2023-01-20T23:39:23.084Z,46.90
2023-01-20T23:41:56.078Z,46.92
2023-01-20T23:44:29.136Z,46.96
2023-01-20T23:47:07.890Z,47.00
2023-01-20T23:49:41.142Z,47.01
2023-01-20T23:52:14.071Z,47.04
2023-01-20T23:54:47.022Z,47.08
2023-01-20T23:57:20.195Z,47.01
2023-01-20T23:59:53.156Z,47.05
